sensor_id;sensor_type;location;lat;lon;timestamp;pressure;altitude;pressure_sealevel;temperature;humidity
58919;BME280;44704;50.122;19.932;2022-11-20T00:01:11;98150.06;;;-5.23;84.57
58919;BME280;44704;50.122;19.932;2022-11-20T00:03:41;98157.38;;;-5.24;84.05
58919;BME280;44704;50.122;19.932;2022-11-20T00:06:12;98159.98;;;-5.23;84.43
58919;BME280;44704;50.122;19.932;2022-11-20T00:08:40;98156.15;;;-5.21;84.45
58919;BME280;44704;50.122;19.932;2022-11-20T00:11:09;98157.05;;;-5.17;84.52
58919;BME280;44704;50.122;19.932;2022-11-20T00:13:37;98156.36;;;-5.19;84.35
58919;BME280;44704;50.122;19.932;2022-11-20T00:16:06;98149.91;;;-5.20;84.47
58919;BME280;44704;50.122;19.932;2022-11-20T00:18:34;98146.09;;;-5.22;84.74
58919;BME280;44704;50.122;19.932;2022-11-20T00:21:12;98139.61;;;-5.27;84.13
58919;BME280;44704;50.122;19.932;2022-11-20T00:23:40;98142.27;;;-5.28;84.18
58919;BME280;44704;50.122;19.932;2022-11-20T00:26:10;98143.34;;;-5.29;84.37
58919;BME280;44704;50.122;19.932;2022-11-20T00:28:38;98142.16;;;-5.27;84.19
58919;BME280;44704;50.122;19.932;2022-11-20T00:31:13;98136.53;;;-5.28;84.60
58919;BME280;44704;50.122;19.932;2022-11-20T00:33:41;98133.05;;;-5.28;84.09
58919;BME280;44704;50.122;19.932;2022-11-20T00:36:19;98134.38;;;-5.33;84.26
58919;BME280;44704;50.122;19.932;2022-11-20T00:38:51;98143.23;;;-5.35;84.51
58919;BME280;44704;50.122;19.932;2022-11-20T00:41:19;98143.39;;;-5.35;84.28
58919;BME280;44704;50.122;19.932;2022-11-20T00:43:45;98142.27;;;-5.32;84.38
58919;BME280;44704;50.122;19.932;2022-11-20T00:46:15;98135.97;;;-5.29;84.49
58919;BME280;44704;50.122;19.932;2022-11-20T00:48:43;98136.44;;;-5.27;84.68
58919;BME280;44704;50.122;19.932;2022-11-20T00:51:12;98139.13;;;-5.24;84.74
58919;BME280;44704;50.122;19.932;2022-11-20T00:53:40;98139.30;;;-5.22;84.43
58919;BME280;44704;50.122;19.932;2022-11-20T00:56:10;98135.77;;;-5.22;84.61
58919;BME280;44704;50.122;19.932;2022-11-20T00:58:40;98129.02;;;-5.21;84.63
58919;BME280;44704;50.122;19.932;2022-11-20T01:01:19;98124.02;;;-5.20;84.51
58919;BME280;44704;50.122;19.932;2022-11-20T01:03:49;98113.44;;;-5.18;84.72
58919;BME280;44704;50.122;19.932;2022-11-20T01:06:18;98117.06;;;-5.17;85.12
58919;BME280;44704;50.122;19.932;2022-11-20T01:08:46;98116.26;;;-5.18;84.71
58919;BME280;44704;50.122;19.932;2022-11-20T01:11:18;98113.77;;;-5.21;84.24
58919;BME280;44704;50.122;19.932;2022-11-20T01:13:48;98114.61;;;-5.26;84.22
58919;BME280;44704;50.122;19.932;2022-11-20T01:16:19;98118.71;;;-5.30;84.33
58919;BME280;44704;50.122;19.932;2022-11-20T01:18:49;98122.77;;;-5.32;84.07
58919;BME280;44704;50.122;19.932;2022-11-20T01:21:23;98112.30;;;-5.30;84.79
58919;BME280;44704;50.122;19.932;2022-11-20T01:23:51;98109.27;;;-5.29;84.57
58919;BME280;44704;50.122;19.932;2022-11-20T01:26:20;98107.97;;;-5.30;84.50
58919;BME280;44704;50.122;19.932;2022-11-20T01:28:48;98099.09;;;-5.32;84.40
58919;BME280;44704;50.122;19.932;2022-11-20T01:31:18;98102.61;;;-5.36;84.38
58919;BME280;44704;50.122;19.932;2022-11-20T01:33:46;98099.48;;;-5.38;83.98
58919;BME280;44704;50.122;19.932;2022-11-20T01:36:13;98095.56;;;-5.38;84.36
58919;BME280;44704;50.122;19.932;2022-11-20T01:38:41;98096.91;;;-5.39;84.25
58919;BME280;44704;50.122;19.932;2022-11-20T01:41:11;98101.71;;;-5.41;84.63
58919;BME280;44704;50.122;19.932;2022-11-20T01:43:58;98105.56;;;-5.40;84.68
58919;BME280;44704;50.122;19.932;2022-11-20T01:46:26;98099.67;;;-5.38;85.09
58919;BME280;44704;50.122;19.932;2022-11-20T01:51:46;98089.30;;;-5.37;84.88
58919;BME280;44704;50.122;19.932;2022-11-20T01:54:18;98092.14;;;-5.35;84.72
58919;BME280;44704;50.122;19.932;2022-11-20T01:56:48;98099.48;;;-5.32;84.78
58919;BME280;44704;50.122;19.932;2022-11-20T01:59:20;98102.83;;;-5.30;85.01
58919;BME280;44704;50.122;19.932;2022-11-20T02:01:48;98096.15;;;-5.31;84.76
58919;BME280;44704;50.122;19.932;2022-11-20T02:04:16;98097.34;;;-5.32;84.83
58919;BME280;44704;50.122;19.932;2022-11-20T02:06:53;98100.45;;;-5.31;84.72
58919;BME280;44704;50.122;19.932;2022-11-20T02:09:22;98099.95;;;-5.30;84.61
58919;BME280;44704;50.122;19.932;2022-11-20T02:11:49;98097.36;;;-5.29;84.33
58919;BME280;44704;50.122;19.932;2022-11-20T02:14:15;98098.70;;;-5.30;84.33
58919;BME280;44704;50.122;19.932;2022-11-20T02:16:47;98100.49;;;-5.32;84.57
58919;BME280;44704;50.122;19.932;2022-11-20T02:19:27;98106.21;;;-5.32;84.49
58919;BME280;44704;50.122;19.932;2022-11-20T02:22:09;98110.71;;;-5.35;84.24
58919;BME280;44704;50.122;19.932;2022-11-20T02:24:41;98111.88;;;-5.34;84.06
58919;BME280;44704;50.122;19.932;2022-11-20T02:27:13;98112.55;;;-5.32;84.37
58919;BME280;44704;50.122;19.932;2022-11-20T02:29:47;98115.33;;;-5.31;84.41
58919;BME280;44704;50.122;19.932;2022-11-20T02:34:50;98113.23;;;-5.37;83.99
58919;BME280;44704;50.122;19.932;2022-11-20T02:37:18;98111.39;;;-5.42;83.53
58919;BME280;44704;50.122;19.932;2022-11-20T02:39:47;98111.92;;;-5.49;83.97
58919;BME280;44704;50.122;19.932;2022-11-20T02:42:15;98111.48;;;-5.57;83.23
58919;BME280;44704;50.122;19.932;2022-11-20T02:44:42;98111.86;;;-5.65;83.46
58919;BME280;44704;50.122;19.932;2022-11-20T02:47:10;98113.27;;;-5.70;83.55
58919;BME280;44704;50.122;19.932;2022-11-20T02:49:36;98114.83;;;-5.77;83.55
58919;BME280;44704;50.122;19.932;2022-11-20T02:52:03;98113.80;;;-5.79;83.72
58919;BME280;44704;50.122;19.932;2022-11-20T02:54:30;98112.83;;;-5.78;84.14
58919;BME280;44704;50.122;19.932;2022-11-20T02:56:57;98111.77;;;-5.77;84.25
58919;BME280;44704;50.122;19.932;2022-11-20T02:59:24;98109.85;;;-5.77;84.13
58919;BME280;44704;50.122;19.932;2022-11-20T03:01:51;98109.39;;;-5.76;84.44
58919;BME280;44704;50.122;19.932;2022-11-20T03:04:18;98103.54;;;-5.75;84.19
58919;BME280;44704;50.122;19.932;2022-11-20T03:06:45;98099.86;;;-5.76;84.13
58919;BME280;44704;50.122;19.932;2022-11-20T03:09:12;98100.27;;;-5.74;84.27
58919;BME280;44704;50.122;19.932;2022-11-20T03:11:39;98099.68;;;-5.74;84.15
58919;BME280;44704;50.122;19.932;2022-11-20T03:14:06;98100.38;;;-5.74;83.99
58919;BME280;44704;50.122;19.932;2022-11-20T03:16:33;98094.98;;;-5.75;84.17
58919;BME280;44704;50.122;19.932;2022-11-20T03:19:00;98100.33;;;-5.77;83.61
58919;BME280;44704;50.122;19.932;2022-11-20T03:21:27;98101.25;;;-5.79;83.47
58919;BME280;44704;50.122;19.932;2022-11-20T03:23:54;98098.20;;;-5.82;83.34
58919;BME280;44704;50.122;19.932;2022-11-20T03:26:24;98097.20;;;-5.85;83.62
58919;BME280;44704;50.122;19.932;2022-11-20T03:28:59;98093.48;;;-5.86;84.26
58919;BME280;44704;50.122;19.932;2022-11-20T03:31:29;98092.17;;;-5.88;83.84
58919;BME280;44704;50.122;19.932;2022-11-20T03:33:57;98091.08;;;-5.89;83.84
58919;BME280;44704;50.122;19.932;2022-11-20T03:36:26;98089.42;;;-5.88;84.08
58919;BME280;44704;50.122;19.932;2022-11-20T03:38:54;98087.95;;;-5.86;84.32
58919;BME280;44704;50.122;19.932;2022-11-20T03:41:26;98088.30;;;-5.84;84.01
58919;BME280;44704;50.122;19.932;2022-11-20T03:43:57;98086.42;;;-5.83;83.96
58919;BME280;44704;50.122;19.932;2022-11-20T03:46:25;98085.21;;;-5.82;84.48
58919;BME280;44704;50.122;19.932;2022-11-20T03:48:53;98081.47;;;-5.81;84.63
58919;BME280;44704;50.122;19.932;2022-11-20T03:51:26;98077.98;;;-5.81;84.03
58919;BME280;44704;50.122;19.932;2022-11-20T03:53:55;98081.52;;;-5.82;84.41
58919;BME280;44704;50.122;19.932;2022-11-20T03:56:25;98083.02;;;-5.81;84.09
58919;BME280;44704;50.122;19.932;2022-11-20T03:58:53;98076.83;;;-5.81;83.91
58919;BME280;44704;50.122;19.932;2022-11-20T04:01:23;98078.41;;;-5.79;84.37
58919;BME280;44704;50.122;19.932;2022-11-20T04:03:52;98075.98;;;-5.78;84.11
58919;BME280;44704;50.122;19.932;2022-11-20T04:06:22;98074.26;;;-5.78;84.52
58919;BME280;44704;50.122;19.932;2022-11-20T04:08:50;98078.88;;;-5.78;84.29
58919;BME280;44704;50.122;19.932;2022-11-20T04:11:19;98079.05;;;-5.78;83.88
58919;BME280;44704;50.122;19.932;2022-11-20T04:13:48;98081.07;;;-5.77;83.97
58919;BME280;44704;50.122;19.932;2022-11-20T04:16:15;98085.39;;;-5.76;84.32
58919;BME280;44704;50.122;19.932;2022-11-20T04:18:43;98078.35;;;-5.78;83.88
58919;BME280;44704;50.122;19.932;2022-11-20T04:21:10;98073.53;;;-5.80;84.76
58919;BME280;44704;50.122;19.932;2022-11-20T04:23:38;98075.02;;;-5.80;84.63
58919;BME280;44704;50.122;19.932;2022-11-20T04:26:10;98066.56;;;-5.80;84.73
58919;BME280;44704;50.122;19.932;2022-11-20T04:28:38;98066.36;;;-5.80;84.34
58919;BME280;44704;50.122;19.932;2022-11-20T04:31:10;98067.36;;;-5.80;84.35
58919;BME280;44704;50.122;19.932;2022-11-20T04:33:37;98063.91;;;-5.77;84.73
58919;BME280;44704;50.122;19.932;2022-11-20T04:36:11;98064.23;;;-5.75;84.69
58919;BME280;44704;50.122;19.932;2022-11-20T04:38:39;98065.92;;;-5.74;84.44
58919;BME280;44704;50.122;19.932;2022-11-20T04:41:07;98062.91;;;-5.80;83.75
58919;BME280;44704;50.122;19.932;2022-11-20T04:43:35;98061.88;;;-5.82;84.30
58919;BME280;44704;50.122;19.932;2022-11-20T04:46:02;98061.86;;;-5.83;84.36
58919;BME280;44704;50.122;19.932;2022-11-20T04:48:29;98061.88;;;-5.87;83.89
58919;BME280;44704;50.122;19.932;2022-11-20T04:50:57;98057.00;;;-5.92;83.19
58919;BME280;44704;50.122;19.932;2022-11-20T04:53:24;98051.42;;;-5.92;83.91
58919;BME280;44704;50.122;19.932;2022-11-20T04:55:51;98052.30;;;-6.02;82.77
58919;BME280;44704;50.122;19.932;2022-11-20T04:58:17;98047.38;;;-6.16;82.66
58919;BME280;44704;50.122;19.932;2022-11-20T05:00:44;98047.20;;;-6.23;83.11
58919;BME280;44704;50.122;19.932;2022-11-20T05:03:11;98046.41;;;-6.26;83.57
58919;BME280;44704;50.122;19.932;2022-11-20T05:05:38;98048.25;;;-6.26;83.83
58919;BME280;44704;50.122;19.932;2022-11-20T05:08:05;98052.49;;;-6.26;83.53
58919;BME280;44704;50.122;19.932;2022-11-20T05:10:32;98056.20;;;-6.24;83.65
58919;BME280;44704;50.122;19.932;2022-11-20T05:12:58;98058.23;;;-6.22;83.38
58919;BME280;44704;50.122;19.932;2022-11-20T05:15:25;98060.46;;;-6.19;83.81
58919;BME280;44704;50.122;19.932;2022-11-20T05:17:53;98052.81;;;-6.19;83.78
58919;BME280;44704;50.122;19.932;2022-11-20T05:20:20;98049.74;;;-6.16;84.32
58919;BME280;44704;50.122;19.932;2022-11-20T05:22:47;98048.80;;;-6.16;84.31
58919;BME280;44704;50.122;19.932;2022-11-20T05:25:14;98049.89;;;-6.16;84.07
58919;BME280;44704;50.122;19.932;2022-11-20T05:27:41;98048.02;;;-6.15;84.09
58919;BME280;44704;50.122;19.932;2022-11-20T05:30:08;98047.70;;;-6.12;84.33
58919;BME280;44704;50.122;19.932;2022-11-20T05:32:35;98045.30;;;-6.09;84.34
58919;BME280;44704;50.122;19.932;2022-11-20T05:35:02;98041.50;;;-6.04;84.79
58919;BME280;44704;50.122;19.932;2022-11-20T05:37:29;98042.01;;;-6.00;85.04
58919;BME280;44704;50.122;19.932;2022-11-20T05:39:56;98044.60;;;-6.00;84.49
58919;BME280;44704;50.122;19.932;2022-11-20T05:42:23;98042.51;;;-6.00;84.36
58919;BME280;44704;50.122;19.932;2022-11-20T05:45:01;98042.86;;;-5.97;84.60
58919;BME280;44704;50.122;19.932;2022-11-20T05:47:31;98040.27;;;-5.92;84.87
58919;BME280;44704;50.122;19.932;2022-11-20T05:49:58;98039.04;;;-5.94;83.85
58919;BME280;44704;50.122;19.932;2022-11-20T05:52:28;98036.82;;;-6.00;84.09
58919;BME280;44704;50.122;19.932;2022-11-20T05:54:56;98033.05;;;-6.06;83.45
58919;BME280;44704;50.122;19.932;2022-11-20T05:57:23;98029.47;;;-6.11;83.81
58919;BME280;44704;50.122;19.932;2022-11-20T05:59:50;98029.45;;;-6.13;84.13
58919;BME280;44704;50.122;19.932;2022-11-20T06:02:17;98026.42;;;-6.15;84.32
58919;BME280;44704;50.122;19.932;2022-11-20T06:04:45;98030.30;;;-6.14;84.23
58919;BME280;44704;50.122;19.932;2022-11-20T06:07:11;98036.24;;;-6.10;84.37
58919;BME280;44704;50.122;19.932;2022-11-20T06:09:38;98032.18;;;-6.08;84.08
58919;BME280;44704;50.122;19.932;2022-11-20T06:12:05;98031.05;;;-6.06;84.33
58919;BME280;44704;50.122;19.932;2022-11-20T06:14:33;98031.15;;;-6.03;84.23
58919;BME280;44704;50.122;19.932;2022-11-20T06:17:00;98029.70;;;-6.03;84.21
58919;BME280;44704;50.122;19.932;2022-11-20T06:19:27;98032.52;;;-6.01;84.10
58919;BME280;44704;50.122;19.932;2022-11-20T06:21:54;98031.27;;;-5.99;84.37
58919;BME280;44704;50.122;19.932;2022-11-20T06:24:21;98030.40;;;-5.97;83.84
58919;BME280;44704;50.122;19.932;2022-11-20T06:26:48;98035.67;;;-5.95;84.17
58919;BME280;44704;50.122;19.932;2022-11-20T06:29:15;98037.94;;;-5.93;84.42
58919;BME280;44704;50.122;19.932;2022-11-20T06:31:42;98032.54;;;-5.93;84.33
58919;BME280;44704;50.122;19.932;2022-11-20T06:34:09;98028.88;;;-5.95;83.97
58919;BME280;44704;50.122;19.932;2022-11-20T06:36:36;98027.64;;;-5.98;83.54
58919;BME280;44704;50.122;19.932;2022-11-20T06:39:03;98033.09;;;-6.01;83.50
58919;BME280;44704;50.122;19.932;2022-11-20T06:41:30;98023.97;;;-6.00;83.64
58919;BME280;44704;50.122;19.932;2022-11-20T06:43:57;98021.78;;;-5.96;83.95
58919;BME280;44704;50.122;19.932;2022-11-20T06:46:24;98022.89;;;-5.91;84.31
58919;BME280;44704;50.122;19.932;2022-11-20T06:48:51;98016.63;;;-5.90;83.86
58919;BME280;44704;50.122;19.932;2022-11-20T06:51:18;98013.45;;;-5.94;84.13
58919;BME280;44704;50.122;19.932;2022-11-20T06:53:45;98012.52;;;-5.90;84.54
58919;BME280;44704;50.122;19.932;2022-11-20T06:56:12;98010.55;;;-5.84;84.68
58919;BME280;44704;50.122;19.932;2022-11-20T06:58:39;98012.20;;;-5.76;84.63
58919;BME280;44704;50.122;19.932;2022-11-20T07:01:09;98015.66;;;-5.68;84.79
58919;BME280;44704;50.122;19.932;2022-11-20T07:03:37;98017.70;;;-5.62;84.69
58919;BME280;44704;50.122;19.932;2022-11-20T07:06:05;98019.08;;;-5.57;84.97
58919;BME280;44704;50.122;19.932;2022-11-20T07:08:32;98013.31;;;-5.54;84.63
58919;BME280;44704;50.122;19.932;2022-11-20T07:11:01;98008.45;;;-5.53;84.54
58919;BME280;44704;50.122;19.932;2022-11-20T07:13:29;98009.34;;;-5.50;84.55
58919;BME280;44704;50.122;19.932;2022-11-20T07:16:01;98013.02;;;-5.49;84.38
58919;BME280;44704;50.122;19.932;2022-11-20T07:18:28;98017.02;;;-5.52;84.27
58919;BME280;44704;50.122;19.932;2022-11-20T07:20:55;98019.84;;;-5.57;84.34
58919;BME280;44704;50.122;19.932;2022-11-20T07:23:22;98022.19;;;-5.56;84.64
58919;BME280;44704;50.122;19.932;2022-11-20T07:25:49;98023.32;;;-5.51;85.34
58919;BME280;44704;50.122;19.932;2022-11-20T07:28:16;98017.94;;;-5.43;85.47
58919;BME280;44704;50.122;19.932;2022-11-20T07:30:49;98023.05;;;-5.34;85.68
58919;BME280;44704;50.122;19.932;2022-11-20T07:33:16;98021.64;;;-5.22;85.74
58919;BME280;44704;50.122;19.932;2022-11-20T07:35:43;98021.16;;;-5.07;86.06
58919;BME280;44704;50.122;19.932;2022-11-20T07:38:10;98017.94;;;-4.94;85.89
58919;BME280;44704;50.122;19.932;2022-11-20T07:40:37;98021.27;;;-4.80;86.32
58919;BME280;44704;50.122;19.932;2022-11-20T07:43:04;98028.13;;;-4.69;85.76
58919;BME280;44704;50.122;19.932;2022-11-20T07:45:31;98032.35;;;-4.60;86.17
58919;BME280;44704;50.122;19.932;2022-11-20T07:47:57;98038.63;;;-4.49;86.39
58919;BME280;44704;50.122;19.932;2022-11-20T07:50:24;98039.95;;;-4.38;86.27
58919;BME280;44704;50.122;19.932;2022-11-20T07:52:51;98036.31;;;-4.27;86.13
58919;BME280;44704;50.122;19.932;2022-11-20T07:55:19;98039.39;;;-4.15;86.42
58919;BME280;44704;50.122;19.932;2022-11-20T07:57:46;98035.15;;;-4.07;86.08
58919;BME280;44704;50.122;19.932;2022-11-20T08:00:13;98039.31;;;-4.03;85.89
58919;BME280;44704;50.122;19.932;2022-11-20T08:02:41;98039.72;;;-3.99;85.93
58919;BME280;44704;50.122;19.932;2022-11-20T08:05:09;98040.14;;;-3.93;85.67
58919;BME280;44704;50.122;19.932;2022-11-20T08:07:40;98041.90;;;-3.89;85.52
58919;BME280;44704;50.122;19.932;2022-11-20T08:10:10;98041.95;;;-3.83;85.53
58919;BME280;44704;50.122;19.932;2022-11-20T08:12:48;98038.30;;;-3.80;85.35
58919;BME280;44704;50.122;19.932;2022-11-20T08:15:35;98040.27;;;-3.77;85.14
58919;BME280;44704;50.122;19.932;2022-11-20T08:18:10;98043.59;;;-3.73;85.34
58919;BME280;44704;50.122;19.932;2022-11-20T08:20:40;98041.71;;;-3.69;85.08
58919;BME280;44704;50.122;19.932;2022-11-20T08:23:07;98041.09;;;-3.68;84.80
58919;BME280;44704;50.122;19.932;2022-11-20T08:25:36;98036.41;;;-3.66;84.72
58919;BME280;44704;50.122;19.932;2022-11-20T08:28:06;98037.06;;;-3.62;85.49
58919;BME280;44704;50.122;19.932;2022-11-20T08:30:34;98032.34;;;-3.56;85.43
58919;BME280;44704;50.122;19.932;2022-11-20T08:33:04;98037.16;;;-3.53;85.03
58919;BME280;44704;50.122;19.932;2022-11-20T08:35:38;98031.61;;;-3.53;85.21
58919;BME280;44704;50.122;19.932;2022-11-20T08:38:05;98030.67;;;-3.54;85.23
58919;BME280;44704;50.122;19.932;2022-11-20T08:40:32;98029.11;;;-3.51;85.20
58919;BME280;44704;50.122;19.932;2022-11-20T08:42:59;98029.35;;;-3.46;85.76
58919;BME280;44704;50.122;19.932;2022-11-20T08:45:27;98024.13;;;-3.39;85.97
58919;BME280;44704;50.122;19.932;2022-11-20T08:47:59;98027.67;;;-3.34;85.75
58919;BME280;44704;50.122;19.932;2022-11-20T08:50:26;98024.92;;;-3.32;85.48
58919;BME280;44704;50.122;19.932;2022-11-20T08:52:53;98018.42;;;-3.28;85.38
58919;BME280;44704;50.122;19.932;2022-11-20T08:55:20;98015.60;;;-3.24;85.27
58919;BME280;44704;50.122;19.932;2022-11-20T08:57:47;98012.16;;;-3.24;84.93
58919;BME280;44704;50.122;19.932;2022-11-20T09:00:15;98009.40;;;-3.21;84.91
58919;BME280;44704;50.122;19.932;2022-11-20T09:02:42;98007.39;;;-3.16;85.05
58919;BME280;44704;50.122;19.932;2022-11-20T09:05:09;98006.59;;;-3.12;85.18
58919;BME280;44704;50.122;19.932;2022-11-20T09:07:35;98010.41;;;-3.13;84.43
58919;BME280;44704;50.122;19.932;2022-11-20T09:10:03;98010.26;;;-3.16;84.67
58919;BME280;44704;50.122;19.932;2022-11-20T09:12:30;98007.73;;;-3.16;84.69
58919;BME280;44704;50.122;19.932;2022-11-20T09:14:57;98003.15;;;-3.08;85.30
58919;BME280;44704;50.122;19.932;2022-11-20T09:17:23;98002.55;;;-2.94;85.72
58919;BME280;44704;50.122;19.932;2022-11-20T09:19:50;97999.83;;;-2.81;85.89
58919;BME280;44704;50.122;19.932;2022-11-20T09:22:17;98001.13;;;-2.71;85.42
58919;BME280;44704;50.122;19.932;2022-11-20T09:24:44;98002.20;;;-2.66;84.66
58919;BME280;44704;50.122;19.932;2022-11-20T09:27:11;98002.96;;;-2.59;85.25
58919;BME280;44704;50.122;19.932;2022-11-20T09:29:38;97999.20;;;-2.48;85.74
58919;BME280;44704;50.122;19.932;2022-11-20T09:32:05;98003.59;;;-2.35;85.54
58919;BME280;44704;50.122;19.932;2022-11-20T09:34:32;97999.92;;;-2.23;85.65
58919;BME280;44704;50.122;19.932;2022-11-20T09:36:59;98006.52;;;-2.11;85.62
58919;BME280;44704;50.122;19.932;2022-11-20T09:39:26;98006.20;;;-2.00;85.63
58919;BME280;44704;50.122;19.932;2022-11-20T09:42:00;98008.38;;;-1.91;85.52
58919;BME280;44704;50.122;19.932;2022-11-20T09:44:40;98011.07;;;-1.84;85.17
58919;BME280;44704;50.122;19.932;2022-11-20T09:50:33;98009.88;;;-1.77;83.73
58919;BME280;44704;50.122;19.932;2022-11-20T09:53:34;98003.38;;;-1.77;83.63
58919;BME280;44704;50.122;19.932;2022-11-20T09:56:03;97999.23;;;-1.75;84.09
58919;BME280;44704;50.122;19.932;2022-11-20T10:01:17;97994.17;;;-1.67;84.12
58919;BME280;44704;50.122;19.932;2022-11-20T10:04:08;97992.45;;;-1.64;84.23
58919;BME280;44704;50.122;19.932;2022-11-20T10:09:34;98000.30;;;-1.49;84.57
58919;BME280;44704;50.122;19.932;2022-11-20T10:23:03;98005.13;;;-1.10;84.25
58919;BME280;44704;50.122;19.932;2022-11-20T10:25:39;98005.89;;;-1.09;84.14
58919;BME280;44704;50.122;19.932;2022-11-20T10:28:18;98001.67;;;-1.05;84.15
58919;BME280;44704;50.122;19.932;2022-11-20T10:30:52;97995.44;;;-1.06;83.47
58919;BME280;44704;50.122;19.932;2022-11-20T10:33:24;97997.63;;;-1.05;83.78
58919;BME280;44704;50.122;19.932;2022-11-20T10:35:55;97995.78;;;-1.03;83.74
58919;BME280;44704;50.122;19.932;2022-11-20T10:38:40;97997.05;;;-1.00;83.84
58919;BME280;44704;50.122;19.932;2022-11-20T10:41:17;97987.25;;;-1.02;83.69
58919;BME280;44704;50.122;19.932;2022-11-20T10:44:12;97987.10;;;-1.01;83.41
58919;BME280;44704;50.122;19.932;2022-11-20T10:47:18;97977.08;;;-0.94;83.81
58919;BME280;44704;50.122;19.932;2022-11-20T10:49:52;97972.61;;;-0.88;83.50
58919;BME280;44704;50.122;19.932;2022-11-20T10:58:13;97957.88;;;-0.69;83.29
58919;BME280;44704;50.122;19.932;2022-11-20T11:00:42;97959.27;;;-0.62;83.13
58919;BME280;44704;50.122;19.932;2022-11-20T11:03:31;97955.94;;;-0.51;83.14
58919;BME280;44704;50.122;19.932;2022-11-20T11:06:20;97946.88;;;-0.36;82.70
58919;BME280;44704;50.122;19.932;2022-11-20T11:08:50;97941.83;;;-0.27;82.48
58919;BME280;44704;50.122;19.932;2022-11-20T11:11:26;97943.02;;;-0.20;81.66
58919;BME280;44704;50.122;19.932;2022-11-20T11:14:23;97939.45;;;-0.20;81.48
58919;BME280;44704;50.122;19.932;2022-11-20T11:16:53;97933.17;;;-0.27;81.06
58919;BME280;44704;50.122;19.932;2022-11-20T11:19:21;97930.56;;;-0.28;81.35
58919;BME280;44704;50.122;19.932;2022-11-20T11:21:55;97920.50;;;-0.30;81.19
58919;BME280;44704;50.122;19.932;2022-11-20T11:24:28;97918.64;;;-0.25;81.97
58919;BME280;44704;50.122;19.932;2022-11-20T11:26:59;97919.52;;;-0.18;81.84
58919;BME280;44704;50.122;19.932;2022-11-20T11:29:31;97917.50;;;-0.10;81.80
58919;BME280;44704;50.122;19.932;2022-11-20T11:32:12;97918.02;;;-0.01;81.77
58919;BME280;44704;50.122;19.932;2022-11-20T11:34:40;97918.13;;;0.07;81.64
58919;BME280;44704;50.122;19.932;2022-11-20T11:37:17;97917.64;;;0.12;81.28
58919;BME280;44704;50.122;19.932;2022-11-20T11:39:46;97920.08;;;0.17;81.20
58919;BME280;44704;50.122;19.932;2022-11-20T11:42:17;97919.58;;;0.16;80.43
58919;BME280;44704;50.122;19.932;2022-11-20T11:44:47;97914.00;;;0.14;80.31
58919;BME280;44704;50.122;19.932;2022-11-20T11:47:46;97911.09;;;0.10;79.82
58919;BME280;44704;50.122;19.932;2022-11-20T11:53:16;97903.17;;;0.15;80.51
58919;BME280;44704;50.122;19.932;2022-11-20T12:01:01;97886.64;;;0.13;79.16
58919;BME280;44704;50.122;19.932;2022-11-20T12:03:38;97881.19;;;0.15;79.43
58919;BME280;44704;50.122;19.932;2022-11-20T12:06:11;97883.62;;;0.17;79.52
58919;BME280;44704;50.122;19.932;2022-11-20T12:08:53;97884.21;;;0.18;79.43
58919;BME280;44704;50.122;19.932;2022-11-20T12:11:34;97887.54;;;0.16;78.89
58919;BME280;44704;50.122;19.932;2022-11-20T12:16:40;97885.64;;;0.11;78.62
58919;BME280;44704;50.122;19.932;2022-11-20T12:19:10;97888.00;;;0.03;78.23
58919;BME280;44704;50.122;19.932;2022-11-20T12:24:33;97884.31;;;-0.04;78.92
58919;BME280;44704;50.122;19.932;2022-11-20T12:27:06;97881.56;;;0.03;78.62
58919;BME280;44704;50.122;19.932;2022-11-20T12:29:50;97883.95;;;0.03;78.64
58919;BME280;44704;50.122;19.932;2022-11-20T12:35:41;97885.44;;;-0.05;78.11
58919;BME280;44704;50.122;19.932;2022-11-20T12:43:21;97884.52;;;-0.12;78.83
58919;BME280;44704;50.122;19.932;2022-11-20T12:48:48;97879.88;;;-0.14;79.06
58919;BME280;44704;50.122;19.932;2022-11-20T12:51:44;97879.26;;;-0.11;78.92
58919;BME280;44704;50.122;19.932;2022-11-20T12:54:42;97879.39;;;-0.06;79.45
58919;BME280;44704;50.122;19.932;2022-11-20T12:57:35;97869.79;;;-0.02;79.65
58919;BME280;44704;50.122;19.932;2022-11-20T13:05:21;97860.48;;;0.01;79.59
58919;BME280;44704;50.122;19.932;2022-11-20T13:07:52;97853.30;;;0.00;79.40
58919;BME280;44704;50.122;19.932;2022-11-20T13:10:42;97845.76;;;0.00;79.49
58919;BME280;44704;50.122;19.932;2022-11-20T13:15:55;97845.96;;;-0.04;79.53
58919;BME280;44704;50.122;19.932;2022-11-20T13:18:24;97840.14;;;-0.06;79.43
58919;BME280;44704;50.122;19.932;2022-11-20T13:20:51;97844.36;;;-0.09;79.49
58919;BME280;44704;50.122;19.932;2022-11-20T13:23:26;97846.81;;;-0.10;79.94
58919;BME280;44704;50.122;19.932;2022-11-20T13:26:06;97847.31;;;-0.09;80.05
58919;BME280;44704;50.122;19.932;2022-11-20T13:28:34;97836.96;;;-0.08;79.76
58919;BME280;44704;50.122;19.932;2022-11-20T13:31:02;97831.60;;;-0.08;80.04
58919;BME280;44704;50.122;19.932;2022-11-20T13:33:34;97832.38;;;-0.08;79.79
58919;BME280;44704;50.122;19.932;2022-11-20T13:36:06;97815.64;;;-0.07;79.72
58919;BME280;44704;50.122;19.932;2022-11-20T13:38:48;97815.06;;;-0.07;79.39
58919;BME280;44704;50.122;19.932;2022-11-20T13:41:31;97810.67;;;-0.13;79.33
58919;BME280;44704;50.122;19.932;2022-11-20T13:46:45;97815.00;;;-0.24;79.52
58919;BME280;44704;50.122;19.932;2022-11-20T13:49:18;97814.46;;;-0.24;79.82
58919;BME280;44704;50.122;19.932;2022-11-20T13:51:51;97809.94;;;-0.23;79.75
58919;BME280;44704;50.122;19.932;2022-11-20T14:02:17;97816.73;;;-0.26;80.19
58919;BME280;44704;50.122;19.932;2022-11-20T14:04:48;97822.04;;;-0.27;79.80
58919;BME280;44704;50.122;19.932;2022-11-20T14:07:17;97823.23;;;-0.28;80.36
58919;BME280;44704;50.122;19.932;2022-11-20T14:09:54;97816.25;;;-0.31;79.94
58919;BME280;44704;50.122;19.932;2022-11-20T14:12:33;97820.56;;;-0.31;79.94
58919;BME280;44704;50.122;19.932;2022-11-20T14:15:00;97823.45;;;-0.30;80.07
58919;BME280;44704;50.122;19.932;2022-11-20T14:17:35;97817.58;;;-0.29;80.13
58919;BME280;44704;50.122;19.932;2022-11-20T14:20:12;97813.05;;;-0.25;80.33
58919;BME280;44704;50.122;19.932;2022-11-20T14:22:50;97801.48;;;-0.24;80.07